createdAt,value
2023-02-23T00:01:40.162Z,9.35
2023-02-23T00:04:07.456Z,9.33
2023-02-23T00:06:36.473Z,9.34
2023-02-23T00:09:07.956Z,9.34
2023-02-23T00:11:35.089Z,9.33
2023-02-23T00:14:03.880Z,9.32
2023-02-23T00:16:30.913Z,9.30
2023-02-23T00:19:00.968Z,9.29
2023-02-23T00:21:30.361Z,9.29
2023-02-23T00:23:58.842Z,9.31
2023-02-23T00:26:26.892Z,9.31
2023-02-23T00:28:54.692Z,9.33
2023-02-23T00:31:25.256Z,9.33
2023-02-23T00:33:54.657Z,9.36
2023-02-23T00:36:22.991Z,9.35
2023-02-23T00:38:53.455Z,9.33
2023-02-23T00:41:23.484Z,9.38
2023-02-23T00:43:50.527Z,9.40
2023-02-23T00:46:18.384Z,9.39
2023-02-23T00:48:46.066Z,9.36
2023-02-23T00:51:13.654Z,9.35
2023-02-23T00:53:41.565Z,9.35
2023-02-23T00:56:10.197Z,9.37
2023-02-23T00:58:37.476Z,9.36
2023-02-23T01:01:07.055Z,9.32
2023-02-23T01:03:34.203Z,9.30
2023-02-23T01:06:05.454Z,9.31
2023-02-23T01:08:34.652Z,9.28
2023-02-23T01:11:06.786Z,9.22
2023-02-23T01:13:33.868Z,9.16
2023-02-23T01:16:01.426Z,9.10
2023-02-23T01:18:28.589Z,9.04
2023-02-23T01:20:55.566Z,9.00
2023-02-23T01:23:23.294Z,8.97
2023-02-23T01:25:50.516Z,8.97
2023-02-23T01:28:17.508Z,8.94
2023-02-23T01:30:45.462Z,8.93
2023-02-23T01:33:14.081Z,8.93
2023-02-23T01:35:41.090Z,8.95
2023-02-23T01:38:08.106Z,8.97
2023-02-23T01:40:37.417Z,8.97
2023-02-23T01:43:07.653Z,8.94
2023-02-23T01:45:35.249Z,8.89
2023-02-23T01:48:06.347Z,8.85
2023-02-23T01:50:37.851Z,8.83
2023-02-23T01:53:06.017Z,8.85
2023-02-23T01:55:33.075Z,8.81
2023-02-23T01:58:04.576Z,8.81
2023-02-23T02:00:33.317Z,8.82
2023-02-23T02:03:02.317Z,8.82
2023-02-23T02:05:30.386Z,8.81
2023-02-23T02:07:59.412Z,8.82
2023-02-23T02:10:31.014Z,8.83
2023-02-23T02:12:58.360Z,8.82
2023-02-23T02:15:31.961Z,8.81
2023-02-23T02:18:03.593Z,8.82
2023-02-23T02:20:44.911Z,8.85
2023-02-23T02:23:15.292Z,8.89
2023-02-23T02:25:45.483Z,8.90
2023-02-23T02:28:12.882Z,8.92
2023-02-23T02:30:41.990Z,8.97
2023-02-23T02:33:11.411Z,8.93
2023-02-23T02:35:41.556Z,8.89
2023-02-23T02:38:11.644Z,8.89
2023-02-23T02:40:53.625Z,8.90
2023-02-23T02:43:21.477Z,8.89
2023-02-23T02:45:48.988Z,8.87
2023-02-23T02:48:21.092Z,8.85
2023-02-23T02:50:53.775Z,8.82
2023-02-23T02:53:26.915Z,8.84
2023-02-23T02:55:56.366Z,8.81
2023-02-23T02:58:25.838Z,8.83
2023-02-23T03:00:56.513Z,8.82
2023-02-23T03:03:29.447Z,8.82
2023-02-23T03:05:59.418Z,8.83
2023-02-23T03:08:36.353Z,8.87
2023-02-23T03:11:09.400Z,8.84
2023-02-23T03:13:40.816Z,8.87
2023-02-23T03:16:13.965Z,8.89
2023-02-23T03:18:51.806Z,8.89
2023-02-23T03:21:28.141Z,8.88
2023-02-23T03:24:05.952Z,8.79
2023-02-23T03:26:39.005Z,8.77
2023-02-23T03:29:09.308Z,8.77
2023-02-23T03:31:43.515Z,8.78
2023-02-23T03:34:16.616Z,8.79
2023-02-23T03:36:51.460Z,8.78
2023-02-23T03:39:27.719Z,8.75
2023-02-23T03:41:59.540Z,8.77
2023-02-23T03:44:32.880Z,8.80
2023-02-23T03:47:04.321Z,8.80
2023-02-23T03:49:37.504Z,8.80
2023-02-23T03:52:11.083Z,8.82
2023-02-23T03:54:43.852Z,8.80
2023-02-23T03:57:16.238Z,8.78
2023-02-23T03:59:51.023Z,8.80
2023-02-23T04:02:21.862Z,8.83
2023-02-23T04:04:52.675Z,8.81
2023-02-23T04:07:23.228Z,8.83
2023-02-23T04:09:53.287Z,8.82
2023-02-23T04:12:26.322Z,8.81
2023-02-23T04:14:56.394Z,8.81
2023-02-23T04:17:26.899Z,8.75
2023-02-23T04:19:54.187Z,8.73
2023-02-23T04:22:21.815Z,8.68
2023-02-23T04:24:48.882Z,8.68
2023-02-23T04:27:15.792Z,8.69
2023-02-23T04:29:42.691Z,8.70
2023-02-23T04:32:12.894Z,8.69
2023-02-23T04:34:39.812Z,8.70
2023-02-23T04:37:06.784Z,8.68
2023-02-23T04:39:33.723Z,8.66
2023-02-23T04:42:00.562Z,8.67
2023-02-23T04:44:27.395Z,8.67
2023-02-23T04:46:54.246Z,8.68
2023-02-23T04:49:21.265Z,8.69
2023-02-23T04:51:48.127Z,8.67
2023-02-23T04:54:14.997Z,8.70
2023-02-23T04:56:41.823Z,8.71
2023-02-23T04:59:08.864Z,8.72
2023-02-23T05:01:37.567Z,8.71
2023-02-23T05:04:04.630Z,8.66
2023-02-23T05:06:32.160Z,8.68
2023-02-23T05:08:59.077Z,8.67
2023-02-23T05:11:27.980Z,8.68
2023-02-23T05:13:54.924Z,8.67
2023-02-23T05:16:21.844Z,8.67
2023-02-23T05:18:48.701Z,8.69
2023-02-23T05:21:15.543Z,8.70
2023-02-23T05:23:42.536Z,8.71
2023-02-23T05:26:10.934Z,8.70
2023-02-23T05:28:38.643Z,8.69
2023-02-23T05:31:06.451Z,8.68
2023-02-23T05:33:33.856Z,8.67
2023-02-23T05:36:00.988Z,8.65
2023-02-23T05:38:28.049Z,8.63
2023-02-23T05:40:54.911Z,8.55
2023-02-23T05:43:21.751Z,8.56
2023-02-23T05:45:48.617Z,8.58
2023-02-23T05:48:15.477Z,8.62
2023-02-23T05:50:42.330Z,8.62
2023-02-23T05:53:09.187Z,8.68
2023-02-23T05:55:36.674Z,8.68
2023-02-23T05:58:03.849Z,8.67
2023-02-23T06:00:30.971Z,8.67
2023-02-23T06:02:58.013Z,8.69
2023-02-23T06:05:24.997Z,8.69
2023-02-23T06:07:51.896Z,8.70
2023-02-23T06:10:18.736Z,8.69
2023-02-23T06:12:45.635Z,8.69
2023-02-23T06:15:12.549Z,8.70
2023-02-23T06:17:39.413Z,8.73
2023-02-23T06:20:07.678Z,8.76
2023-02-23T06:22:34.637Z,8.80
2023-02-23T06:25:05.287Z,8.82
2023-02-23T06:27:32.261Z,8.82
2023-02-23T06:29:59.222Z,8.83
2023-02-23T06:32:27.249Z,8.87
2023-02-23T06:34:54.267Z,8.94
2023-02-23T06:37:21.189Z,8.96
2023-02-23T06:39:49.072Z,9.00
2023-02-23T06:42:15.993Z,8.98
2023-02-23T06:44:43.070Z,9.02
2023-02-23T06:47:11.209Z,9.00
2023-02-23T06:49:40.732Z,9.07
2023-02-23T06:52:08.402Z,9.04
2023-02-23T06:54:35.437Z,9.01
2023-02-23T06:57:02.287Z,8.99
2023-02-23T06:59:30.054Z,9.01
2023-02-23T07:01:57.420Z,9.02
2023-02-23T07:04:24.648Z,9.03
2023-02-23T07:06:52.163Z,9.05
2023-02-23T07:09:19.051Z,9.04
2023-02-23T07:11:46.077Z,9.05
2023-02-23T07:14:21.553Z,9.07
2023-02-23T07:16:53.129Z,9.09
2023-02-23T07:19:20.364Z,9.08
2023-02-23T07:21:47.408Z,9.05
2023-02-23T07:24:14.388Z,9.08
2023-02-23T07:26:43.813Z,9.08
2023-02-23T07:29:12.712Z,9.08
2023-02-23T07:31:40.100Z,9.09
2023-02-23T07:34:07.860Z,9.11
2023-02-23T07:36:35.009Z,9.19
2023-02-23T07:39:02.084Z,9.19
2023-02-23T07:41:29.222Z,9.15
2023-02-23T07:43:56.135Z,9.19
2023-02-23T07:46:23.115Z,9.18
2023-02-23T07:48:50.087Z,9.20
2023-02-23T07:51:17.842Z,9.25
2023-02-23T07:53:45.222Z,9.30
2023-02-23T07:56:12.673Z,9.34
2023-02-23T07:58:41.415Z,9.38
2023-02-23T08:01:09.408Z,9.39
2023-02-23T08:03:36.442Z,9.42
2023-02-23T08:06:03.361Z,9.42
2023-02-23T08:08:30.262Z,9.32
2023-02-23T08:11:00.556Z,9.35
2023-02-23T08:13:27.635Z,9.25
2023-02-23T08:15:54.733Z,9.25
2023-02-23T08:18:21.714Z,9.22
2023-02-23T08:20:48.783Z,9.24
2023-02-23T08:23:18.388Z,9.22
2023-02-23T08:25:45.709Z,9.18
2023-02-23T08:28:12.985Z,9.13
2023-02-23T08:30:41.214Z,9.20
2023-02-23T08:33:08.604Z,9.22
2023-02-23T08:35:35.877Z,9.19
2023-02-23T08:38:03.008Z,9.22
2023-02-23T08:40:30.160Z,9.21
2023-02-23T08:42:57.117Z,9.13
2023-02-23T08:45:24.279Z,9.21
2023-02-23T08:47:51.674Z,9.24
2023-02-23T08:50:18.765Z,9.29
2023-02-23T08:52:45.758Z,9.28
2023-02-23T08:55:14.331Z,9.25
2023-02-23T08:57:41.459Z,9.25
2023-02-23T09:00:14.562Z,9.23
2023-02-23T09:02:42.087Z,9.17
2023-02-23T09:05:09.559Z,9.22
2023-02-23T09:07:38.033Z,9.32
2023-02-23T09:10:05.606Z,9.35
2023-02-23T09:12:32.641Z,9.35
2023-02-23T09:14:59.828Z,9.41
2023-02-23T09:17:26.980Z,9.40
2023-02-23T09:19:54.029Z,9.46
2023-02-23T09:22:21.226Z,9.54
2023-02-23T09:24:48.455Z,9.58
2023-02-23T09:27:15.677Z,9.67
2023-02-23T09:29:43.740Z,9.69
2023-02-23T09:32:11.687Z,9.54
2023-02-23T09:34:39.011Z,9.60
2023-02-23T09:37:06.104Z,9.59
2023-02-23T09:39:38.573Z,9.48
2023-02-23T09:42:11.654Z,9.34
2023-02-23T09:44:41.766Z,9.37
2023-02-23T09:47:12.110Z,9.37
2023-02-23T09:49:41.432Z,9.37
2023-02-23T09:52:15.989Z,9.42
2023-02-23T09:54:43.486Z,9.55
2023-02-23T09:57:14.990Z,9.64
2023-02-23T09:59:42.178Z,9.72
2023-02-23T10:02:19.607Z,9.83
2023-02-23T10:04:49.259Z,9.82
2023-02-23T10:07:16.548Z,9.85
2023-02-23T10:09:46.600Z,9.77
2023-02-23T10:12:16.801Z,9.75
2023-02-23T10:14:44.136Z,9.77
2023-02-23T10:17:15.236Z,9.73
2023-02-23T10:19:45.578Z,9.84
2023-02-23T10:22:14.711Z,9.88
2023-02-23T10:24:44.946Z,9.91
2023-02-23T10:27:13.212Z,9.95
2023-02-23T10:29:43.695Z,9.79
2023-02-23T10:32:13.970Z,9.88
2023-02-23T10:34:41.724Z,9.92
2023-02-23T10:37:11.586Z,9.96
2023-02-23T10:39:40.777Z,9.97
2023-02-23T10:42:12.630Z,10.05
2023-02-23T10:44:39.914Z,10.14
2023-02-23T10:47:09.744Z,10.19
2023-02-23T10:49:39.831Z,10.25
2023-02-23T10:52:13.893Z,10.28
2023-02-23T10:54:44.640Z,10.22
2023-02-23T10:57:14.786Z,10.24
2023-02-23T10:59:57.891Z,10.27
2023-02-23T11:02:26.008Z,10.10
2023-02-23T11:04:54.729Z,10.09
2023-02-23T11:07:24.388Z,10.09
2023-02-23T11:09:52.526Z,10.15
2023-02-23T11:12:23.146Z,10.23
2023-02-23T11:14:51.043Z,10.34
2023-02-23T11:17:21.056Z,10.43
2023-02-23T11:19:48.060Z,10.52
2023-02-23T11:22:23.696Z,10.55
2023-02-23T11:24:52.803Z,10.54
2023-02-23T11:27:23.495Z,10.49
2023-02-23T11:29:52.928Z,10.45
2023-02-23T11:32:20.651Z,10.43
2023-02-23T11:34:49.605Z,10.37
2023-02-23T11:37:18.209Z,10.35
2023-02-23T11:39:48.298Z,10.36
2023-02-23T11:42:19.651Z,10.38
2023-02-23T11:44:51.041Z,10.35
2023-02-23T11:47:19.602Z,10.33
2023-02-23T11:49:48.269Z,10.21
2023-02-23T11:52:16.785Z,10.38
2023-02-23T11:54:50.984Z,10.42
2023-02-23T11:57:22.499Z,10.50
2023-02-23T11:59:51.034Z,10.52
2023-02-23T12:02:21.139Z,10.53
2023-02-23T12:04:48.255Z,10.52
2023-02-23T12:07:18.455Z,10.47
2023-02-23T12:09:46.692Z,10.47
2023-02-23T12:12:17.112Z,10.47
2023-02-23T12:14:50.188Z,10.45
2023-02-23T12:17:21.951Z,10.38
2023-02-23T12:19:51.699Z,10.36
2023-02-23T12:22:19.044Z,10.35
2023-02-23T12:24:46.866Z,10.31
2023-02-23T12:27:17.209Z,10.29
2023-02-23T12:29:48.762Z,10.28
2023-02-23T12:32:19.618Z,10.22
2023-02-23T12:34:50.164Z,10.29
2023-02-23T12:37:28.372Z,10.37
2023-02-23T12:39:58.369Z,10.45
2023-02-23T12:42:28.442Z,10.47
2023-02-23T12:44:59.235Z,10.49
2023-02-23T12:47:29.634Z,10.50
2023-02-23T12:50:08.031Z,10.52
2023-02-23T12:52:38.994Z,10.59
2023-02-23T12:55:11.410Z,10.66
2023-02-23T12:57:39.085Z,10.75
2023-02-23T13:00:20.789Z,10.81
2023-02-23T13:02:50.738Z,10.85
2023-02-23T13:05:23.025Z,10.76
2023-02-23T13:07:57.114Z,10.72
2023-02-23T13:10:32.573Z,10.62
2023-02-23T13:13:08.408Z,10.63
2023-02-23T13:15:39.040Z,10.58
2023-02-23T13:18:11.937Z,10.58
2023-02-23T13:20:41.582Z,10.57
2023-02-23T13:23:11.680Z,10.41
2023-02-23T13:25:41.832Z,10.41
2023-02-23T13:28:15.270Z,10.39
2023-02-23T13:30:47.768Z,10.35
2023-02-23T13:33:19.036Z,10.36
2023-02-23T13:35:46.141Z,10.36
2023-02-23T13:38:13.751Z,10.39
2023-02-23T13:40:44.168Z,10.45
2023-02-23T13:43:18.038Z,10.58
2023-02-23T13:45:49.160Z,10.66
2023-02-23T13:48:16.719Z,10.75
2023-02-23T13:50:47.415Z,10.80
2023-02-23T13:53:17.609Z,10.82
2023-02-23T13:55:50.181Z,10.84
2023-02-23T13:58:20.688Z,10.80
2023-02-23T14:00:50.880Z,10.79
2023-02-23T14:03:21.358Z,10.78
2023-02-23T14:05:53.100Z,10.76
2023-02-23T14:08:23.534Z,10.79
2023-02-23T14:10:53.419Z,10.80
2023-02-23T14:13:21.713Z,10.83
2023-02-23T14:15:53.903Z,10.80
2023-02-23T14:18:21.344Z,10.79
2023-02-23T14:20:54.470Z,10.76
2023-02-23T14:23:21.877Z,10.75
2023-02-23T14:25:51.455Z,10.72
2023-02-23T14:28:21.547Z,10.62
2023-02-23T14:30:51.633Z,10.61
2023-02-23T14:33:22.053Z,10.54
2023-02-23T14:35:49.251Z,10.48
2023-02-23T14:38:25.281Z,10.43
2023-02-23T14:40:53.865Z,10.33
2023-02-23T14:43:23.987Z,10.25
2023-02-23T14:45:55.156Z,10.26
2023-02-23T14:48:23.865Z,10.29
2023-02-23T14:50:51.057Z,10.33
2023-02-23T14:53:21.816Z,10.32
2023-02-23T14:55:50.123Z,10.32
2023-02-23T14:58:22.231Z,10.37
2023-02-23T15:00:49.395Z,10.42
2023-02-23T15:03:16.492Z,10.47
2023-02-23T15:05:46.820Z,10.47
2023-02-23T15:08:16.267Z,10.49
2023-02-23T15:10:44.525Z,10.54
2023-02-23T15:13:16.839Z,10.55
2023-02-23T15:15:46.016Z,10.56
2023-02-23T15:18:21.358Z,10.49
2023-02-23T15:20:49.547Z,10.47
2023-02-23T15:23:18.514Z,10.46
2023-02-23T15:25:48.744Z,10.33
2023-02-23T15:28:19.130Z,10.34
2023-02-23T15:30:47.314Z,10.15
2023-02-23T15:33:15.921Z,10.11
2023-02-23T15:35:47.813Z,10.06
2023-02-23T15:38:40.421Z,10.00
2023-02-23T15:41:08.167Z,9.96
2023-02-23T15:43:35.440Z,9.83
2023-02-23T15:46:05.664Z,9.84
2023-02-23T15:48:36.099Z,9.82
2023-02-23T15:51:07.366Z,9.81
2023-02-23T15:53:36.866Z,9.80
2023-02-23T15:56:10.237Z,9.83
2023-02-23T15:58:44.590Z,9.82
2023-02-23T16:01:25.273Z,9.85
2023-02-23T16:03:55.853Z,9.87
2023-02-23T16:06:25.602Z,9.85
2023-02-23T16:08:55.680Z,9.90
2023-02-23T16:11:23.259Z,9.85
2023-02-23T16:13:52.004Z,9.86
2023-02-23T16:16:20.874Z,9.83
2023-02-23T16:18:52.507Z,9.73
2023-02-23T16:21:22.131Z,9.72
2023-02-23T16:23:52.652Z,9.67
2023-02-23T16:26:24.925Z,9.41
2023-02-23T16:28:55.796Z,9.43
2023-02-23T16:31:28.418Z,9.40
2023-02-23T16:33:57.457Z,9.39
2023-02-23T16:36:33.911Z,9.42
2023-02-23T16:39:03.357Z,9.45
2023-02-23T16:41:31.976Z,9.47
2023-02-23T16:44:02.111Z,9.52
2023-02-23T16:46:32.937Z,9.54
2023-02-23T16:49:06.012Z,9.55
2023-02-23T16:51:35.157Z,9.48
2023-02-23T16:54:04.928Z,9.49
2023-02-23T16:56:32.288Z,9.45
2023-02-23T16:59:01.736Z,9.39
2023-02-23T17:01:28.878Z,9.34
2023-02-23T17:03:56.088Z,9.26
2023-02-23T17:06:23.552Z,9.25
2023-02-23T17:08:58.067Z,9.23
2023-02-23T17:11:26.313Z,9.16
2023-02-23T17:13:53.358Z,9.15
2023-02-23T17:16:20.815Z,9.01
2023-02-23T17:18:50.126Z,8.97
2023-02-23T17:21:24.006Z,8.91
2023-02-23T17:23:52.975Z,8.88
2023-02-23T17:26:22.570Z,8.87
2023-02-23T17:28:49.783Z,8.90
2023-02-23T17:31:18.127Z,8.93
2023-02-23T17:33:45.860Z,8.96
2023-02-23T17:36:14.356Z,8.96
2023-02-23T17:38:44.529Z,8.97
2023-02-23T17:41:14.480Z,8.96
2023-02-23T17:43:41.745Z,8.96
2023-02-23T17:46:09.473Z,8.97
2023-02-23T17:48:36.557Z,9.00
2023-02-23T17:51:05.875Z,9.06
2023-02-23T17:53:33.416Z,9.11
2023-02-23T17:56:00.596Z,9.08
2023-02-23T17:58:28.381Z,9.04
2023-02-23T18:00:56.791Z,9.04
2023-02-23T18:03:24.793Z,9.02
2023-02-23T18:05:53.315Z,9.00
2023-02-23T18:08:20.599Z,9.02
2023-02-23T18:10:50.308Z,9.00
2023-02-23T18:13:17.360Z,8.99
2023-02-23T18:15:49.401Z,9.04
2023-02-23T18:18:17.022Z,9.03
2023-02-23T18:20:52.051Z,9.04
2023-02-23T18:23:20.360Z,9.02
2023-02-23T18:25:49.887Z,9.06
2023-02-23T18:28:17.737Z,9.08
2023-02-23T18:30:45.540Z,9.09
2023-02-23T18:33:13.664Z,9.11
2023-02-23T18:35:42.953Z,9.07
2023-02-23T18:38:11.677Z,9.09
2023-02-23T18:40:39.487Z,9.07
2023-02-23T18:43:07.001Z,9.07
2023-02-23T18:45:34.332Z,9.04
2023-02-23T18:48:01.582Z,9.02
2023-02-23T18:50:28.851Z,8.98
2023-02-23T18:52:56.590Z,8.97
2023-02-23T18:55:24.087Z,8.93
2023-02-23T18:57:53.012Z,8.89
2023-02-23T19:00:20.781Z,8.91
2023-02-23T19:02:48.221Z,8.90
2023-02-23T19:05:18.145Z,8.90
2023-02-23T19:07:45.918Z,8.87
2023-02-23T19:10:15.505Z,8.86
2023-02-23T19:12:42.724Z,8.87
2023-02-23T19:15:10.328Z,8.86
2023-02-23T19:17:37.409Z,8.80
2023-02-23T19:20:08.370Z,8.80
2023-02-23T19:22:35.486Z,8.75
2023-02-23T19:25:03.032Z,8.73
2023-02-23T19:27:30.064Z,8.71
2023-02-23T19:29:57.070Z,8.70
2023-02-23T19:32:24.635Z,8.68
2023-02-23T19:34:51.811Z,8.65
2023-02-23T19:37:19.036Z,8.62
2023-02-23T19:39:46.747Z,8.58
2023-02-23T19:42:18.520Z,8.51
2023-02-23T19:44:45.554Z,8.47
2023-02-23T19:47:12.644Z,8.46
2023-02-23T19:49:39.911Z,8.43
2023-02-23T19:52:06.939Z,8.39
2023-02-23T19:54:38.294Z,8.38
2023-02-23T19:57:05.331Z,8.37
2023-02-23T19:59:32.628Z,8.36
2023-02-23T20:01:59.660Z,8.37
2023-02-23T20:04:28.551Z,8.30
2023-02-23T20:06:55.700Z,8.31
2023-02-23T20:09:22.802Z,8.36
2023-02-23T20:11:49.994Z,8.34
2023-02-23T20:14:17.647Z,8.27
2023-02-23T20:16:46.210Z,8.24
2023-02-23T20:19:13.749Z,8.25
2023-02-23T20:21:42.413Z,8.21
2023-02-23T20:24:11.077Z,8.18
2023-02-23T20:26:38.231Z,8.16
2023-02-23T20:29:11.460Z,8.13
2023-02-23T20:31:39.601Z,8.11
2023-02-23T20:34:08.258Z,8.12
2023-02-23T20:36:36.538Z,8.09
2023-02-23T20:39:06.450Z,8.09
2023-02-23T20:41:35.619Z,8.08
2023-02-23T20:44:03.333Z,8.07
2023-02-23T20:46:30.922Z,8.05
2023-02-23T20:48:59.821Z,7.98
2023-02-23T20:51:27.614Z,7.93
2023-02-23T20:53:54.915Z,7.90
2023-02-23T20:56:22.519Z,7.92
2023-02-23T20:58:49.624Z,7.90
2023-02-23T21:01:19.330Z,7.89
2023-02-23T21:03:47.074Z,7.89
2023-02-23T21:06:16.286Z,7.85
2023-02-23T21:08:43.331Z,7.87
2023-02-23T21:11:10.551Z,7.88
2023-02-23T21:13:37.583Z,7.86
2023-02-23T21:16:05.031Z,7.89
2023-02-23T21:18:32.305Z,7.86
2023-02-23T21:21:06.963Z,7.86
2023-02-23T21:23:34.061Z,7.82
2023-02-23T21:26:07.995Z,7.79
2023-02-23T21:28:35.816Z,7.78
2023-02-23T21:31:02.980Z,7.76
2023-02-23T21:33:30.543Z,7.75
2023-02-23T21:35:59.189Z,7.74
2023-02-23T21:38:26.756Z,7.73
2023-02-23T21:40:54.130Z,7.74
2023-02-23T21:43:22.517Z,7.72
2023-02-23T21:45:50.082Z,7.67
2023-02-23T21:48:17.389Z,7.68
2023-02-23T21:50:44.557Z,7.67
2023-02-23T21:53:13.024Z,7.65
2023-02-23T21:55:40.612Z,7.63
2023-02-23T21:58:08.291Z,7.61
2023-02-23T22:00:36.600Z,7.57
2023-02-23T22:03:03.918Z,7.58
2023-02-23T22:05:31.340Z,7.58
2023-02-23T22:07:58.298Z,7.59
2023-02-23T22:10:26.206Z,7.61
2023-02-23T22:12:56.431Z,7.62
2023-02-23T22:15:27.861Z,7.61
2023-02-23T22:17:55.642Z,7.60
2023-02-23T22:20:23.017Z,7.61
2023-02-23T22:22:51.064Z,7.62
2023-02-23T22:25:19.072Z,7.62
2023-02-23T22:27:46.391Z,7.62
2023-02-23T22:30:14.942Z,7.66
2023-02-23T22:32:43.277Z,7.66
2023-02-23T22:35:10.854Z,7.64
2023-02-23T22:37:39.075Z,7.61
2023-02-23T22:40:09.680Z,7.58
2023-02-23T22:42:36.669Z,7.57
2023-02-23T22:45:06.429Z,7.59
2023-02-23T22:47:34.284Z,7.55
2023-02-23T22:50:01.113Z,7.56
2023-02-23T22:52:30.030Z,7.54
2023-02-23T22:54:56.955Z,7.51
2023-02-23T22:57:23.909Z,7.55
2023-02-23T22:59:53.755Z,7.54
2023-02-23T23:02:23.070Z,7.52
2023-02-23T23:04:49.930Z,7.53
2023-02-23T23:07:20.352Z,7.53
2023-02-23T23:09:47.286Z,7.52
2023-02-23T23:12:14.085Z,7.52
2023-02-23T23:14:40.895Z,7.52
2023-02-23T23:17:09.716Z,7.51
2023-02-23T23:19:39.309Z,7.51
2023-02-23T23:22:06.652Z,7.50
2023-02-23T23:24:33.565Z,7.49
2023-02-23T23:27:01.130Z,7.45
2023-02-23T23:29:30.689Z,7.41
2023-02-23T23:31:57.804Z,7.35
2023-02-23T23:34:25.508Z,7.31
2023-02-23T23:36:53.517Z,7.30
2023-02-23T23:39:22.000Z,7.30
2023-02-23T23:41:52.397Z,7.29
2023-02-23T23:44:21.316Z,7.30
2023-02-23T23:46:50.960Z,7.30
2023-02-23T23:49:19.684Z,7.26
2023-02-23T23:51:50.567Z,7.24
2023-02-23T23:54:21.735Z,7.20
2023-02-23T23:56:49.911Z,7.18
2023-02-23T23:59:17.754Z,7.17
